Time;durP1;ratioP1;P1;durP2;ratioP2;P2;SDS_P1;SDS_P2;PMS_P1;PMS_P2;Temp;Humidity;BMP_temperature;BMP_pressure;BME280_temperature;BME280_humidity;BME280_pressure;Samples;Min_cycle;Max_cycle;Signal;HPM_P1;HPM_P2
2022/10/29 00:01:39;;;;;;;10.00;5.93;;;15.20;99.90;;;;;;4987492;28;20262;-65
2022/10/29 00:04:05;;;;;;;10.40;5.70;;;15.20;99.90;;;;;;4992302;28;20203;-65
2022/10/29 00:06:31;;;;;;;9.90;5.57;;;15.00;99.90;;;;;;4997482;28;20331;-65
2022/10/29 00:08:56;;;;;;;11.57;6.13;;;15.00;99.90;;;;;;4997527;28;20441;-67
2022/10/29 00:11:22;;;;;;;12.07;5.60;;;15.00;99.90;;;;;;4994613;28;20199;-64
2022/10/29 00:13:54;;;;;;;12.80;5.57;;;15.00;99.90;;;;;;4993754;28;20535;-64
2022/10/29 00:16:22;;;;;;;7.68;5.40;;;15.10;99.90;;;;;;4994414;28;20450;-64
2022/10/29 00:18:47;;;;;;;6.28;5.55;;;15.00;99.90;;;;;;5007030;28;20274;-65
2022/10/29 00:21:16;;;;;;;9.20;4.70;;;14.80;99.90;;;;;;5002147;28;20191;-64
2022/10/29 00:23:42;;;;;;;9.88;6.30;;;14.80;99.90;;;;;;4973663;28;20445;-65
2022/10/29 00:26:08;;;;;;;11.38;5.28;;;14.80;99.90;;;;;;5005178;28;20562;-65
2022/10/29 00:28:34;;;;;;;9.90;5.50;;;14.90;99.90;;;;;;5007861;28;20213;-65
2022/10/29 00:31:04;;;;;;;9.30;5.50;;;14.90;99.90;;;;;;4992450;28;20187;-65
2022/10/29 00:33:31;;;;;;;9.77;5.60;;;14.70;99.90;;;;;;4988875;28;20187;-65
2022/10/29 00:36:06;;;;;;;6.35;4.80;;;14.80;99.90;;;;;;4990821;28;20679;-65
2022/10/29 00:38:33;;;;;;;10.18;4.65;;;14.70;99.90;;;;;;4999609;28;20217;-65
2022/10/29 00:40:58;;;;;;;9.45;5.40;;;14.90;99.90;;;;;;4983847;28;20556;-67
2022/10/29 00:43:25;;;;;;;7.90;5.07;;;14.90;99.90;;;;;;4994299;28;20215;-64
2022/10/29 00:45:56;;;;;;;7.72;4.60;;;14.80;99.90;;;;;;4997927;28;20203;-64
2022/10/29 00:48:24;;;;;;;9.10;5.05;;;14.50;99.90;;;;;;4990815;28;20274;-65
2022/10/29 00:50:51;;;;;;;9.63;4.65;;;14.50;99.90;;;;;;4990995;28;20195;-65
2022/10/29 00:53:21;;;;;;;9.80;4.57;;;14.70;99.90;;;;;;4991530;28;20186;-64
2022/10/29 00:55:47;;;;;;;7.38;5.00;;;14.50;99.90;;;;;;4993672;28;20211;-65
2022/10/29 00:58:13;;;;;;;11.60;5.63;;;14.70;99.90;;;;;;4982633;28;20322;-67
2022/10/29 01:00:38;;;;;;;8.80;5.57;;;14.40;99.90;;;;;;4990050;28;20596;-65
2022/10/29 01:03:05;;;;;;;9.53;5.13;;;14.90;99.90;;;;;;4997903;28;20456;-64
2022/10/29 01:05:33;;;;;;;8.73;4.68;;;14.70;99.90;;;;;;4999038;28;20207;-64
2022/10/29 01:08:00;;;;;;;10.63;5.60;;;14.60;99.90;;;;;;4992212;28;20183;-64
2022/10/29 01:11:09;;;;;;;12.80;5.50;;;14.50;99.90;;;;;;4999885;28;20207;-66
2022/10/29 01:13:47;;;;;;;10.32;5.68;;;14.60;99.90;;;;;;4955305;28;20336;-67
2022/10/29 01:16:25;;;;;;;8.50;5.57;;;14.90;99.90;;;;;;4988190;28;20209;-65
2022/10/29 01:19:06;;;;;;;8.63;6.10;;;14.80;99.90;;;;;;4998383;28;20207;-66
2022/10/29 01:21:44;;;;;;;11.02;5.30;;;14.30;99.90;;;;;;4998110;28;20692;-66
2022/10/29 01:24:19;;;;;;;8.65;5.05;;;14.70;99.90;;;;;;4988405;28;20207;-65
2022/10/29 01:27:12;;;;;;;11.55;5.70;;;14.80;99.90;;;;;;4991879;28;21084;-65
2022/10/29 01:29:56;;;;;;;8.82;6.10;;;14.80;99.90;;;;;;4997024;28;20204;-65
2022/10/29 01:32:29;;;;;;;7.28;4.90;;;14.50;99.90;;;;;;4991796;28;20194;-67
2022/10/29 01:35:05;;;;;;;5.57;4.85;;;14.70;99.90;;;;;;4997905;28;20212;-65
2022/10/29 01:37:49;;;;;;;11.80;7.90;;;14.50;99.90;;;;;;4987740;28;20235;-65
2022/10/29 01:40:31;;;;;;;7.05;5.40;;;14.70;99.90;;;;;;5001440;28;20186;-66
2022/10/29 01:43:03;;;;;;;8.73;5.20;;;14.70;99.90;;;;;;4997209;28;20596;-66
2022/10/29 01:45:34;;;;;;;9.27;5.15;;;14.60;99.90;;;;;;4992652;28;20216;-65
2022/10/29 01:48:11;;;;;;;10.35;5.40;;;14.70;99.90;;;;;;4981345;28;20217;-65
2022/10/29 01:50:41;;;;;;;7.25;5.53;;;14.70;99.90;;;;;;5000533;28;20182;-67
2022/10/29 01:53:07;;;;;;;7.45;4.88;;;15.00;99.90;;;;;;4995874;28;20183;-65
2022/10/29 01:55:36;;;;;;;5.25;4.50;;;14.90;99.90;;;;;;4990232;28;20298;-66
2022/10/29 01:58:04;;;;;;;8.50;6.18;;;14.80;99.90;;;;;;4998173;28;20225;-65
2022/10/29 02:00:57;;;;;;;6.43;5.30;;;14.80;99.90;;;;;;4997173;28;20180;-65
2022/10/29 02:03:49;;;;;;;7.70;4.88;;;14.80;99.90;;;;;;4981647;28;20203;-65
2022/10/29 02:06:21;;;;;;;7.63;5.45;;;14.80;99.90;;;;;;4983833;28;20316;-65
2022/10/29 02:09:03;;;;;;;11.05;5.20;;;15.00;99.90;;;;;;4997815;28;20187;-65
2022/10/29 02:11:38;;;;;;;8.65;5.35;;;14.70;99.90;;;;;;4980200;28;20186;-64
2022/10/29 02:14:11;;;;;;;6.18;5.10;;;14.60;99.90;;;;;;4975940;28;20274;-64
2022/10/29 02:16:36;;;;;;;8.60;4.78;;;14.80;99.90;;;;;;4995728;28;20190;-65
2022/10/29 02:19:03;;;;;;;10.63;5.53;;;14.50;99.90;;;;;;4985213;28;20199;-67
2022/10/29 02:21:29;;;;;;;8.73;5.55;;;14.30;99.90;;;;;;4996183;28;20645;-64
2022/10/29 02:23:55;;;;;;;8.60;4.53;;;14.50;99.90;;;;;;4988417;28;20233;-64
2022/10/29 02:26:20;;;;;;;6.00;5.33;;;14.60;99.90;;;;;;4997503;28;20552;-65
2022/10/29 02:28:46;;;;;;;5.60;4.87;;;14.40;99.90;;;;;;4991186;28;20188;-64
2022/10/29 02:31:11;;;;;;;8.53;5.17;;;14.50;99.90;;;;;;4978235;28;20249;-64
2022/10/29 02:33:37;;;;;;;7.00;5.20;;;14.70;99.90;;;;;;4987477;28;20199;-64
2022/10/29 02:36:03;;;;;;;9.90;4.83;;;14.40;99.90;;;;;;4997490;28;20203;-65
2022/10/29 02:38:28;;;;;;;5.63;4.50;;;14.70;99.90;;;;;;4988850;28;20222;-64
2022/10/29 02:40:54;;;;;;;6.60;4.80;;;14.80;99.90;;;;;;4974310;28;20963;-65
2022/10/29 02:43:20;;;;;;;15.57;5.83;;;15.00;99.90;;;;;;4996428;28;20193;-65
2022/10/29 02:45:45;;;;;;;6.10;4.97;;;15.00;99.90;;;;;;5002955;28;20215;-65
2022/10/29 02:48:11;;;;;;;7.13;5.53;;;14.70;99.90;;;;;;5004883;28;20206;-64
2022/10/29 02:50:36;;;;;;;7.37;5.03;;;14.80;99.90;;;;;;5001795;28;20671;-65
2022/10/29 02:53:02;;;;;;;9.10;5.40;;;14.90;99.90;;;;;;4988899;28;20652;-64
2022/10/29 02:55:27;;;;;;;6.60;4.97;;;14.90;99.90;;;;;;4987100;28;20211;-64
2022/10/29 02:57:53;;;;;;;6.40;5.30;;;15.10;99.90;;;;;;4998566;28;20258;-64
2022/10/29 03:00:19;;;;;;;8.33;5.07;;;15.20;99.90;;;;;;4995528;28;20535;-65
2022/10/29 03:02:44;;;;;;;7.63;4.50;;;15.20;99.90;;;;;;4994751;28;20191;-64
2022/10/29 03:05:10;;;;;;;6.47;4.90;;;15.20;99.90;;;;;;4992665;28;20643;-65
2022/10/29 03:07:36;;;;;;;7.37;5.70;;;15.30;99.90;;;;;;4991631;28;20260;-63
2022/10/29 03:10:06;;;;;;;8.40;5.07;;;15.30;99.90;;;;;;4994548;28;20649;-65
2022/10/29 03:12:33;;;;;;;12.10;5.15;;;15.30;99.90;;;;;;4996723;28;20887;-64
2022/10/29 03:14:58;;;;;;;7.00;4.90;;;15.30;99.90;;;;;;5001779;28;20194;-64
2022/10/29 03:17:24;;;;;;;8.83;5.63;;;15.40;99.90;;;;;;4998674;28;20195;-64
2022/10/29 03:19:50;;;;;;;7.53;4.83;;;15.10;99.90;;;;;;5009082;28;20183;-64
2022/10/29 03:22:15;;;;;;;9.23;5.90;;;15.30;99.90;;;;;;4976858;28;20190;-64
2022/10/29 03:24:41;;;;;;;10.20;5.00;;;15.20;99.90;;;;;;4993112;28;20203;-64
2022/10/29 03:27:07;;;;;;;8.40;5.20;;;15.50;99.90;;;;;;5006164;28;20541;-64
2022/10/29 03:29:32;;;;;;;7.60;5.40;;;15.60;99.90;;;;;;5011927;28;20226;-66
2022/10/29 03:31:58;;;;;;;5.60;4.33;;;15.50;99.90;;;;;;5000342;28;20180;-63
2022/10/29 03:34:23;;;;;;;7.90;5.23;;;15.40;99.90;;;;;;4994390;28;20560;-64
2022/10/29 03:36:49;;;;;;;10.10;5.47;;;15.40;99.90;;;;;;4986480;28;20214;-64
2022/10/29 03:39:15;;;;;;;6.00;5.00;;;15.50;99.90;;;;;;4983067;28;20239;-70
2022/10/29 03:41:40;;;;;;;6.20;4.33;;;15.60;99.90;;;;;;4991870;28;20184;-64
2022/10/29 03:44:06;;;;;;;8.53;5.03;;;15.80;99.90;;;;;;4995491;28;20204;-64
2022/10/29 03:46:32;;;;;;;9.80;5.83;;;15.70;99.90;;;;;;4989408;28;20548;-64
2022/10/29 03:48:57;;;;;;;6.67;4.70;;;15.50;99.90;;;;;;4999190;28;20188;-66
2022/10/29 03:51:23;;;;;;;7.60;5.13;;;15.40;99.90;;;;;;4986160;28;20550;-64
2022/10/29 03:53:48;;;;;;;7.50;6.73;;;15.50;99.90;;;;;;4997591;28;20229;-63
2022/10/29 03:56:14;;;;;;;8.67;5.23;;;15.50;99.90;;;;;;4991968;28;20195;-64
2022/10/29 03:58:40;;;;;;;6.60;4.60;;;15.30;99.90;;;;;;4993525;28;20222;-64
2022/10/29 04:01:08;;;;;;;5.27;4.07;;;15.50;99.90;;;;;;4993556;28;20783;-64
2022/10/29 04:03:35;;;;;;;7.57;5.50;;;15.20;99.90;;;;;;4987734;28;20183;-64
2022/10/29 04:06:07;;;;;;;6.82;5.00;;;15.30;99.90;;;;;;4991473;28;20301;-67
2022/10/29 04:08:33;;;;;;;7.18;5.05;;;15.30;99.90;;;;;;4986451;28;20666;-65
2022/10/29 04:10:58;;;;;;;10.70;6.10;;;15.20;99.90;;;;;;4973931;28;20274;-66
2022/10/29 04:13:24;;;;;;;12.63;5.47;;;15.20;99.90;;;;;;4986171;28;20187;-64
2022/10/29 04:15:53;;;;;;;6.80;6.10;;;15.40;99.90;;;;;;4986364;28;20213;-64
2022/10/29 04:18:19;;;;;;;10.00;4.90;;;15.50;99.90;;;;;;4990720;28;20586;-66
2022/10/29 04:20:44;;;;;;;8.60;5.20;;;15.30;99.90;;;;;;4995208;28;20192;-64
2022/10/29 04:23:10;;;;;;;9.10;5.60;;;15.30;99.90;;;;;;4985224;28;20674;-65
2022/10/29 04:25:36;;;;;;;7.23;5.00;;;15.50;99.90;;;;;;4988330;28;20203;-67
2022/10/29 04:28:02;;;;;;;12.43;5.70;;;15.30;99.90;;;;;;4986608;28;20184;-63
2022/10/29 04:30:28;;;;;;;7.88;5.40;;;15.30;99.90;;;;;;4984025;28;20187;-65
2022/10/29 04:32:58;;;;;;;9.55;5.10;;;15.10;99.90;;;;;;4989755;28;20187;-64
2022/10/29 04:35:24;;;;;;;7.55;5.05;;;15.20;99.90;;;;;;4986739;28;20211;-63
2022/10/29 04:37:50;;;;;;;7.05;5.55;;;15.20;99.90;;;;;;4984218;28;20316;-68
2022/10/29 04:40:16;;;;;;;6.03;5.00;;;15.20;99.90;;;;;;4990678;28;20746;-64
2022/10/29 04:42:41;;;;;;;7.00;5.47;;;15.20;99.90;;;;;;4970933;28;20183;-63
2022/10/29 04:45:07;;;;;;;10.73;5.73;;;15.20;99.90;;;;;;4990960;28;20371;-64
2022/10/29 04:47:33;;;;;;;9.70;5.13;;;15.10;99.90;;;;;;4991210;28;20263;-67
2022/10/29 04:49:59;;;;;;;5.37;4.50;;;15.10;99.90;;;;;;4996320;28;20257;-64
2022/10/29 04:52:25;;;;;;;8.10;5.67;;;15.30;99.90;;;;;;4990245;28;20524;-67
2022/10/29 04:54:50;;;;;;;10.73;5.73;;;15.50;99.90;;;;;;4991641;28;20226;-64
2022/10/29 04:57:16;;;;;;;9.50;5.30;;;15.20;99.90;;;;;;4991822;28;20466;-64
2022/10/29 04:59:42;;;;;;;10.07;6.33;;;15.10;99.90;;;;;;4996440;28;20211;-64
2022/10/29 05:02:08;;;;;;;7.80;5.17;;;15.20;99.90;;;;;;4991910;28;20180;-64
2022/10/29 05:04:34;;;;;;;12.15;6.25;;;14.90;99.90;;;;;;4978916;28;20203;-65
2022/10/29 05:06:59;;;;;;;9.40;5.53;;;15.00;99.90;;;;;;4985418;28;20180;-64
2022/10/29 05:09:25;;;;;;;7.97;5.10;;;15.10;99.90;;;;;;4986364;28;20191;-64
2022/10/29 05:11:50;;;;;;;5.37;4.77;;;14.60;99.90;;;;;;4991322;28;20567;-63
2022/10/29 05:14:16;;;;;;;10.60;5.17;;;14.60;99.90;;;;;;4995802;28;20203;-66
2022/10/29 05:16:42;;;;;;;7.00;5.37;;;14.70;99.90;;;;;;4989976;28;20194;-64
2022/10/29 05:19:07;;;;;;;8.13;6.00;;;14.60;99.90;;;;;;4998840;28;20203;-64
2022/10/29 05:21:33;;;;;;;13.20;8.20;;;14.50;99.90;;;;;;4997789;28;20241;-64
2022/10/29 05:23:58;;;;;;;7.80;5.60;;;14.50;99.90;;;;;;4990577;28;20251;-64
2022/10/29 05:26:24;;;;;;;9.80;6.53;;;14.50;99.90;;;;;;4991253;28;20199;-64
2022/10/29 05:28:50;;;;;;;9.10;6.20;;;14.40;99.90;;;;;;4986040;28;20197;-64
2022/10/29 05:31:17;;;;;;;8.95;5.65;;;14.50;99.90;;;;;;4990643;28;20202;-63
2022/10/29 05:33:42;;;;;;;6.38;5.65;;;14.60;99.90;;;;;;4989840;28;20184;-64
2022/10/29 05:36:08;;;;;;;7.60;5.73;;;14.30;99.90;;;;;;4990341;28;20233;-64
2022/10/29 05:38:34;;;;;;;8.40;6.23;;;14.50;99.90;;;;;;4984467;28;20481;-65
2022/10/29 05:41:00;;;;;;;14.87;6.70;;;14.30;99.90;;;;;;4986762;28;20187;-64
2022/10/29 05:43:25;;;;;;;11.63;6.87;;;14.40;99.90;;;;;;4988710;28;20585;-64
2022/10/29 05:45:51;;;;;;;7.00;5.60;;;14.20;99.90;;;;;;4986445;28;20334;-64
2022/10/29 05:48:16;;;;;;;10.17;6.90;;;13.90;99.90;;;;;;4985450;28;20195;-63
2022/10/29 05:50:42;;;;;;;10.77;6.27;;;14.30;99.90;;;;;;4994741;28;20187;-66
2022/10/29 05:53:12;;;;;;;6.60;5.67;;;13.90;99.90;;;;;;4988924;28;20202;-64
2022/10/29 05:55:38;;;;;;;10.07;6.03;;;14.00;99.90;;;;;;5002195;28;20544;-64
2022/10/29 05:58:10;;;;;;;10.88;6.25;;;13.90;99.90;;;;;;4993567;28;20203;-64
2022/10/29 06:00:37;;;;;;;9.80;7.45;;;13.70;99.90;;;;;;4987138;28;20579;-64
2022/10/29 06:03:07;;;;;;;7.55;5.53;;;13.80;99.90;;;;;;4984221;28;20183;-65
2022/10/29 06:05:33;;;;;;;8.55;6.28;;;13.90;99.90;;;;;;4989914;28;20203;-66
2022/10/29 06:07:59;;;;;;;11.40;5.90;;;13.70;99.90;;;;;;4991800;28;20236;-65
2022/10/29 06:10:27;;;;;;;9.55;7.30;;;13.60;99.90;;;;;;4993492;28;20191;-65
2022/10/29 06:12:52;;;;;;;10.50;5.72;;;13.70;99.90;;;;;;4998734;28;20604;-64
2022/10/29 06:15:18;;;;;;;11.93;6.23;;;13.80;99.90;;;;;;4996284;28;20752;-65
2022/10/29 06:17:45;;;;;;;7.87;5.30;;;13.70;99.90;;;;;;4988350;28;20210;-66
2022/10/29 06:20:12;;;;;;;7.60;6.05;;;13.80;99.90;;;;;;4992773;28;20446;-64
2022/10/29 06:22:38;;;;;;;9.45;5.88;;;13.70;99.90;;;;;;4988524;28;20238;-66
2022/10/29 06:25:04;;;;;;;10.13;5.60;;;13.70;99.90;;;;;;4991669;28;20621;-65
2022/10/29 06:27:30;;;;;;;9.13;6.25;;;13.60;99.90;;;;;;4986878;28;20184;-66
2022/10/29 06:29:55;;;;;;;9.93;5.80;;;13.60;99.90;;;;;;4971161;28;21549;-64
2022/10/29 06:32:21;;;;;;;9.97;5.50;;;13.90;99.90;;;;;;4991346;28;20230;-65
2022/10/29 06:34:46;;;;;;;14.13;6.80;;;13.90;99.90;;;;;;4986244;28;20203;-64
2022/10/29 06:37:12;;;;;;;9.70;5.60;;;13.60;99.90;;;;;;4992843;28;20207;-68
2022/10/29 06:39:38;;;;;;;11.70;5.97;;;13.70;99.90;;;;;;4985375;28;20365;-64
2022/10/29 06:42:03;;;;;;;9.83;6.30;;;13.50;99.90;;;;;;5000367;28;20187;-66
2022/10/29 06:44:29;;;;;;;8.30;6.40;;;13.60;99.90;;;;;;4991835;28;20262;-64
2022/10/29 06:46:55;;;;;;;7.40;6.20;;;13.40;99.90;;;;;;4989548;28;20262;-57
2022/10/29 06:49:20;;;;;;;14.57;6.60;;;13.60;99.90;;;;;;4997164;28;20195;-56
2022/10/29 06:51:46;;;;;;;9.70;6.50;;;13.50;99.90;;;;;;4987780;28;20195;-57
2022/10/29 06:54:12;;;;;;;7.70;6.03;;;13.80;99.90;;;;;;4985836;28;20199;-56
2022/10/29 06:56:37;;;;;;;10.50;6.93;;;13.80;99.90;;;;;;4990955;28;20846;-56
2022/10/29 06:59:03;;;;;;;10.60;7.07;;;14.00;99.90;;;;;;4998481;28;20230;-57
2022/10/29 07:01:31;;;;;;;9.30;6.40;;;13.80;99.90;;;;;;4995418;28;21275;-57
2022/10/29 07:03:58;;;;;;;7.93;6.38;;;14.00;99.90;;;;;;4997172;28;20461;-56
2022/10/29 07:06:23;;;;;;;11.52;6.95;;;14.00;99.90;;;;;;4994361;28;20672;-55
2022/10/29 07:08:49;;;;;;;11.30;6.43;;;13.90;99.90;;;;;;4993498;28;20205;-55
2022/10/29 07:11:15;;;;;;;10.00;6.00;;;13.90;99.90;;;;;;5002366;28;20190;-59
2022/10/29 07:13:41;;;;;;;11.15;6.80;;;13.80;99.90;;;;;;4993279;28;20578;-60
2022/10/29 07:16:07;;;;;;;10.87;7.13;;;13.70;99.90;;;;;;4987384;28;20369;-60
2022/10/29 07:18:32;;;;;;;9.30;7.00;;;13.80;99.90;;;;;;4999792;28;20462;-60
2022/10/29 07:21:00;;;;;;;8.20;6.70;;;14.00;99.90;;;;;;4999656;28;20183;-60
2022/10/29 07:23:26;;;;;;;9.77;7.13;;;14.30;99.90;;;;;;4980238;28;20606;-60
2022/10/29 07:25:52;;;;;;;9.30;6.67;;;14.60;99.90;;;;;;4993327;28;20198;-61
2022/10/29 07:28:20;;;;;;;11.45;6.72;;;14.40;99.90;;;;;;4997555;28;20731;-60
2022/10/29 07:30:49;;;;;;;9.45;6.63;;;14.40;99.90;;;;;;4990430;28;20190;-61
2022/10/29 07:33:16;;;;;;;10.07;7.32;;;14.40;99.90;;;;;;4970902;28;20654;-60
2022/10/29 07:35:42;;;;;;;8.50;6.93;;;14.50;99.90;;;;;;4984175;28;20298;-60
2022/10/29 07:38:09;;;;;;;10.85;7.32;;;14.30;99.90;;;;;;4989326;28;20546;-73
2022/10/29 07:40:36;;;;;;;10.52;7.13;;;14.50;99.90;;;;;;5001799;28;20175;-76
2022/10/29 07:43:01;;;;;;;10.48;7.15;;;14.60;99.90;;;;;;4970694;28;20660;-63
2022/10/29 07:45:27;;;;;;;9.60;6.60;;;14.70;99.90;;;;;;4989046;28;20258;-63
2022/10/29 07:48:00;;;;;;;8.67;7.77;;;14.70;99.90;;;;;;5000098;28;20191;-63
2022/10/29 07:50:27;;;;;;;7.53;6.30;;;14.80;99.90;;;;;;5002116;28;20538;-63
2022/10/29 07:52:52;;;;;;;12.52;7.00;;;15.00;99.90;;;;;;4994228;28;20211;-63
2022/10/29 07:55:18;;;;;;;11.90;7.73;;;14.80;99.90;;;;;;4992273;28;20227;-63
2022/10/29 07:57:43;;;;;;;7.77;6.50;;;15.20;99.90;;;;;;4996242;28;20188;-63
2022/10/29 08:00:11;;;;;;;7.70;6.90;;;15.40;99.90;;;;;;4991992;28;20270;-65
2022/10/29 08:02:43;;;;;;;10.35;6.38;;;15.40;99.90;;;;;;4991442;28;20265;-65
2022/10/29 08:05:09;;;;;;;11.40;7.30;;;15.40;99.90;;;;;;4974434;28;20226;-65
2022/10/29 08:07:35;;;;;;;9.50;7.47;;;15.80;99.90;;;;;;4993041;28;20216;-65
2022/10/29 08:10:00;;;;;;;12.77;6.00;;;15.70;99.90;;;;;;4994540;28;20257;-65
2022/10/29 08:12:26;;;;;;;10.10;6.47;;;16.00;99.90;;;;;;5006747;28;20257;-66
2022/10/29 08:14:51;;;;;;;7.10;5.93;;;16.30;99.90;;;;;;4999703;28;20222;-66
2022/10/29 08:17:17;;;;;;;9.80;6.33;;;16.60;99.90;;;;;;4991575;28;20682;-66
2022/10/29 08:19:42;;;;;;;13.00;6.90;;;17.20;99.90;;;;;;4981477;28;20695;-65
2022/10/29 08:22:08;;;;;;;7.27;6.43;;;17.30;99.90;;;;;;4992801;28;20192;-65
2022/10/29 08:24:33;;;;;;;7.40;5.93;;;17.80;99.90;;;;;;4989910;28;20209;-65
2022/10/29 08:26:59;;;;;;;9.10;6.97;;;18.10;99.90;;;;;;5002703;28;20207;-67
2022/10/29 08:29:25;;;;;;;11.97;6.37;;;18.40;99.90;;;;;;4994416;28;20195;-65
2022/10/29 08:31:50;;;;;;;12.37;7.10;;;18.70;99.90;;;;;;4987494;28;20595;-65
2022/10/29 08:34:16;;;;;;;9.03;7.10;;;18.60;99.90;;;;;;4987152;28;20295;-64
2022/10/29 08:36:41;;;;;;;12.60;7.13;;;18.60;99.90;;;;;;4983645;28;20215;-67
2022/10/29 08:39:07;;;;;;;12.60;10.47;;;18.80;99.90;;;;;;4985962;28;20261;-67
2022/10/29 08:41:52;;;;;;;10.47;8.67;;;19.10;99.90;;;;;;4990894;28;20190;-64
2022/10/29 08:44:45;;;;;;;12.55;10.40;;;19.30;99.90;;;;;;4986749;28;20211;-66
2022/10/29 08:47:19;;;;;;;11.88;8.30;;;19.40;99.90;;;;;;4985578;28;20271;-65
2022/10/29 08:50:05;;;;;;;11.45;6.90;;;19.50;99.90;;;;;;4989007;28;20187;-66
2022/10/29 08:52:35;;;;;;;9.77;6.53;;;20.10;99.90;;;;;;4988482;28;20206;-65
2022/10/29 08:55:29;;;;;;;12.77;6.82;;;19.90;99.90;;;;;;4979956;28;20512;-66
2022/10/29 08:58:15;;;;;;;10.55;7.30;;;20.10;99.90;;;;;;4968687;28;20203;-65
2022/10/29 09:00:42;;;;;;;9.30;5.82;;;20.30;99.90;;;;;;4988856;28;20187;-65
2022/10/29 09:03:11;;;;;;;12.13;7.70;;;20.10;99.90;;;;;;4987968;28;20190;-65
2022/10/29 09:06:01;;;;;;;8.65;6.60;;;20.10;99.90;;;;;;4990875;28;20204;-65
2022/10/29 09:08:29;;;;;;;10.75;9.45;;;20.70;99.90;;;;;;4981942;28;20273;-64
2022/10/29 09:11:12;;;;;;;10.50;6.35;;;21.40;99.90;;;;;;4996982;28;20278;-65
2022/10/29 09:14:03;;;;;;;14.35;6.40;;;21.50;98.80;;;;;;4979229;28;20192;-65
2022/10/29 09:16:31;;;;;;;13.18;7.85;;;21.50;98.80;;;;;;4990187;28;20198;-65
2022/10/29 09:19:12;;;;;;;9.95;7.15;;;21.50;99.00;;;;;;4985783;28;20203;-65
2022/10/29 09:22:11;;;;;;;10.63;7.43;;;21.40;99.30;;;;;;4985577;28;20545;-65
2022/10/29 09:25:03;;;;;;;14.32;8.07;;;21.30;99.90;;;;;;4980419;28;20294;-64
2022/10/29 09:27:41;;;;;;;14.70;8.65;;;21.10;99.90;;;;;;4981387;28;20192;-63
2022/10/29 09:30:17;;;;;;;10.93;7.28;;;21.10;99.90;;;;;;4983996;28;20203;-64
2022/10/29 09:32:52;;;;;;;11.02;7.40;;;21.00;99.90;;;;;;4985642;28;20195;-62
2022/10/29 09:35:18;;;;;;;13.23;8.27;;;20.90;99.80;;;;;;4986879;28;20214;-63
2022/10/29 09:38:07;;;;;;;15.85;11.52;;;20.80;99.70;;;;;;4986848;28;20274;-61
2022/10/29 09:40:37;;;;;;;13.70;8.93;;;20.70;99.90;;;;;;4970284;28;20184;-62
2022/10/29 09:43:26;;;;;;;9.55;6.20;;;20.60;99.70;;;;;;4990272;28;20554;-62
2022/10/29 09:46:05;;;;;;;9.90;6.28;;;20.70;99.70;;;;;;4992040;28;20587;-61
2022/10/29 09:48:36;;;;;;;11.93;7.10;;;20.30;99.70;;;;;;4988140;28;20195;-60
2022/10/29 09:51:28;;;;;;;11.55;8.63;;;20.70;99.90;;;;;;4991372;28;20219;-61
2022/10/29 09:53:54;;;;;;;17.65;11.57;;;20.80;99.90;;;;;;4982461;28;20208;-60
2022/10/29 09:56:19;;;;;;;10.57;7.50;;;20.90;99.90;;;;;;4995173;28;20241;-61
2022/10/29 09:58:52;;;;;;;13.00;6.20;;;21.00;99.90;;;;;;4990689;28;20223;-61
2022/10/29 10:01:17;;;;;;;10.90;6.28;;;21.00;99.90;;;;;;4985591;28;20599;-61
2022/10/29 10:03:47;;;;;;;12.93;8.07;;;21.10;99.90;;;;;;4995250;28;20191;-61
2022/10/29 10:06:16;;;;;;;9.30;6.72;;;21.30;99.90;;;;;;4987485;28;20198;-61
2022/10/29 10:09:06;;;;;;;10.75;6.90;;;21.40;99.30;;;;;;4976687;28;20249;-61
2022/10/29 10:11:43;;;;;;;11.33;8.00;;;21.50;99.00;;;;;;4986347;28;20199;-61
2022/10/29 10:14:22;;;;;;;11.80;7.10;;;21.80;98.80;;;;;;4971964;28;20511;-61
2022/10/29 10:16:59;;;;;;;12.67;8.47;;;22.00;98.50;;;;;;4994653;28;20270;-62
2022/10/29 10:19:29;;;;;;;11.53;8.10;;;22.30;97.90;;;;;;4989454;28;20979;-61
2022/10/29 10:22:04;;;;;;;9.53;7.70;;;22.60;97.60;;;;;;4995206;28;20439;-63
2022/10/29 10:24:35;;;;;;;11.77;7.70;;;23.20;96.70;;;;;;4992253;28;20727;-61
2022/10/29 10:27:25;;;;;;;9.40;7.00;;;24.10;95.40;;;;;;4989785;28;20438;-60
2022/10/29 10:30:02;;;;;;;9.80;7.03;;;25.00;94.10;;;;;;4996714;28;21012;-61
2022/10/29 10:32:28;;;;;;;8.10;6.43;;;25.60;92.60;;;;;;4988849;28;20453;-62
2022/10/29 10:34:53;;;;;;;9.70;6.40;;;26.10;90.90;;;;;;4998906;28;20454;-62
2022/10/29 10:37:20;;;;;;;7.87;5.73;;;26.00;89.70;;;;;;4989507;28;20615;-62
2022/10/29 10:39:47;;;;;;;9.67;5.47;;;25.90;89.30;;;;;;4994979;28;20385;-61
2022/10/29 10:42:20;;;;;;;9.33;6.50;;;26.00;88.40;;;;;;4990255;28;20893;-62
2022/10/29 10:44:57;;;;;;;8.67;6.47;;;26.50;88.50;;;;;;4997556;28;20459;-61
2022/10/29 10:47:27;;;;;;;8.73;5.70;;;27.40;85.20;;;;;;4988148;28;20527;-61
2022/10/29 10:49:53;;;;;;;10.00;5.90;;;28.10;81.10;;;;;;4996524;28;20801;-61
2022/10/29 10:52:27;;;;;;;9.37;7.10;;;28.70;79.30;;;;;;4992181;28;20440;-61
2022/10/29 10:55:15;;;;;;;8.77;6.80;;;29.20;78.20;;;;;;4974829;28;21082;-61
2022/10/29 10:57:48;;;;;;;10.57;6.73;;;28.90;77.80;;;;;;4982914;28;20955;-61
2022/10/29 11:00:20;;;;;;;8.47;5.90;;;29.10;78.70;;;;;;4988941;28;20530;-61
2022/10/29 11:03:07;;;;;;;6.60;6.00;;;28.90;79.10;;;;;;4990916;28;20453;-61
2022/10/29 11:05:37;;;;;;;7.60;6.20;;;28.50;79.10;;;;;;4994886;28;20502;-61
2022/10/29 11:08:15;;;;;;;10.43;7.10;;;28.30;80.50;;;;;;4987119;28;20465;-61
2022/10/29 11:11:20;;;;;;;8.50;5.73;;;27.80;80.30;;;;;;4999360;28;20450;-62
2022/10/29 11:13:47;;;;;;;8.87;5.10;;;27.70;79.90;;;;;;4937505;29;20541;-62
2022/10/29 11:16:33;;;;;;;8.60;5.93;;;27.70;79.70;;;;;;4992534;28;20497;-62
2022/10/29 11:19:10;;;;;;;9.63;7.63;;;27.90;81.30;;;;;;4985742;28;20878;-62
2022/10/29 11:21:51;;;;;;;10.70;6.10;;;28.30;79.90;;;;;;4991649;28;20431;-61
2022/10/29 11:24:32;;;;;;;10.60;6.57;;;28.40;80.10;;;;;;4996935;28;20545;-62
2022/10/29 11:27:13;;;;;;;10.40;6.87;;;27.90;80.60;;;;;;4996414;28;20493;-62
2022/10/29 11:30:03;;;;;;;13.40;8.87;;;27.50;81.50;;;;;;4993195;28;20434;-61
2022/10/29 11:32:37;;;;;;;7.83;6.00;;;27.00;82.10;;;;;;4999523;28;21025;-61
2022/10/29 11:35:18;;;;;;;7.60;6.00;;;26.60;83.80;;;;;;4988368;28;20473;-61
2022/10/29 11:37:56;;;;;;;10.07;6.50;;;26.30;84.90;;;;;;4989059;28;20462;-61
2022/10/29 11:40:43;;;;;;;7.47;5.03;;;25.90;86.20;;;;;;4993457;28;20434;-61
2022/10/29 11:43:11;;;;;;;8.97;5.70;;;25.70;87.20;;;;;;4997192;28;20426;-61
2022/10/29 11:46:14;;;;;;;8.27;5.60;;;25.70;88.00;;;;;;5003091;28;20708;-62
2022/10/29 11:48:57;;;;;;;11.80;6.37;;;25.70;88.70;;;;;;4997080;28;20479;-62
2022/10/29 11:52:00;;;;;;;9.50;6.50;;;25.40;90.00;;;;;;4995124;28;20959;-62
2022/10/29 11:54:28;;;;;;;9.43;6.20;;;25.80;90.70;;;;;;4993695;28;20462;-63
2022/10/29 11:57:03;;;;;;;9.47;6.10;;;25.10;90.80;;;;;;4992985;28;20448;-62
2022/10/29 11:59:59;;;;;;;13.77;9.90;;;25.00;91.20;;;;;;4988179;28;20474;-62
2022/10/29 12:02:47;;;;;;;11.90;7.67;;;25.00;91.60;;;;;;4990375;28;20945;-63
2022/10/29 12:05:34;;;;;;;10.33;7.80;;;24.90;92.10;;;;;;4989595;28;20570;-63
2022/10/29 12:08:19;;;;;;;8.60;6.60;;;24.80;92.00;;;;;;4989342;28;20976;-63
2022/10/29 12:11:04;;;;;;;9.40;6.80;;;24.80;91.80;;;;;;4998841;28;20444;-63
2022/10/29 12:13:59;;;;;;;10.50;6.17;;;24.80;92.20;;;;;;5001833;28;20497;-63
2022/10/29 12:16:30;;;;;;;12.00;9.97;;;24.80;92.20;;;;;;4975050;28;20952;-62
2022/10/29 12:19:23;;;;;;;13.33;9.43;;;24.80;92.20;;;;;;4994542;28;20482;-62
2022/10/29 12:22:13;;;;;;;10.20;7.77;;;24.70;92.80;;;;;;4998702;28;20447;-62
2022/10/29 12:25:01;;;;;;;14.47;9.07;;;24.70;92.50;;;;;;4997841;28;20561;-62
2022/10/29 12:27:33;;;;;;;12.27;8.60;;;24.70;92.80;;;;;;4993533;28;20484;-62
2022/10/29 12:30:05;;;;;;;9.90;7.30;;;24.70;92.20;;;;;;4992222;28;20512;-71
2022/10/29 12:32:50;;;;;;;8.50;6.53;;;24.70;91.90;;;;;;4993579;28;20447;-72
2022/10/29 12:35:50;;;;;;;8.57;7.07;;;24.70;91.50;;;;;;4991297;28;20470;-71
2022/10/29 12:38:38;;;;;;;10.27;7.90;;;24.70;92.50;;;;;;4986216;28;20664;-64
2022/10/29 12:41:11;;;;;;;14.07;9.47;;;24.60;92.90;;;;;;4984041;28;20486;-64
2022/10/29 12:43:39;;;;;;;11.20;7.80;;;24.60;93.20;;;;;;5000239;28;20470;-64
2022/10/29 12:46:28;;;;;;;11.33;7.97;;;24.60;93.20;;;;;;4989068;28;20470;-64
2022/10/29 12:48:53;;;;;;;11.93;7.50;;;24.60;93.40;;;;;;4989637;28;20478;-64
2022/10/29 12:51:40;;;;;;;10.40;7.37;;;24.60;94.00;;;;;;4987662;28;20978;-65
2022/10/29 12:54:28;;;;;;;9.40;7.03;;;24.70;93.90;;;;;;4985587;28;20698;-68
2022/10/29 12:56:55;;;;;;;13.80;7.97;;;24.70;93.70;;;;;;4989770;28;20448;-65
2022/10/29 12:59:23;;;;;;;13.87;8.77;;;24.70;93.90;;;;;;4987859;28;20457;-68
2022/10/29 13:01:52;;;;;;;11.07;7.33;;;24.70;93.40;;;;;;4984392;28;20455;-68
2022/10/29 13:04:33;;;;;;;12.07;8.93;;;24.80;93.50;;;;;;4986445;28;20469;-64